Terminal Aerodrome Forecast
Issued by NWS Amarillo, TX

Home | Current Version | Previous Version | Text Only | Print | Product List | Glossary On
Versions: 1 2 3 4 5 6 7 8 9 10 11 12 13 14 15 16 17 18 19 20 21
000
FTUS44 KAMA 231956 AAA
TAFDHT
TAF AMD
KDHT 231956Z 2320/2418 15007KT P6SM BKN030 OVC040
     FM240200 VRB06KT P6SM SCT100
     FM240900 VRB06KT P6SM OVC020=

USA.gov is the U.S. government's official web portal to all federal, state and local government web resources and services.